createdAt,value
2022-09-21T00:01:10.616Z,5.57
2022-09-21T00:03:38.408Z,5.70
2022-09-21T00:06:07.160Z,6.23
2022-09-21T00:08:35.065Z,6.17
2022-09-21T00:11:02.430Z,5.83
2022-09-21T00:13:29.609Z,6.13
2022-09-21T00:15:56.767Z,5.50
2022-09-21T00:18:24.585Z,5.57
2022-09-21T00:20:52.068Z,5.80
2022-09-21T00:23:19.903Z,5.70
2022-09-21T00:25:47.147Z,5.90
2022-09-21T00:28:14.387Z,5.83
2022-09-21T00:30:41.673Z,6.07
2022-09-21T00:33:08.862Z,5.20
2022-09-21T00:35:36.060Z,5.40
2022-09-21T00:38:03.715Z,5.67
2022-09-21T00:40:32.263Z,5.43
2022-09-21T00:43:13.352Z,5.73
2022-09-21T00:45:41.597Z,5.57
2022-09-21T00:48:09.275Z,5.23
2022-09-21T00:50:41.873Z,5.03
2022-09-21T00:53:09.195Z,5.30
2022-09-21T00:55:43.003Z,5.47
2022-09-21T00:58:15.967Z,5.80
2022-09-21T01:00:43.192Z,5.70
2022-09-21T01:03:12.514Z,5.30
2022-09-21T01:05:39.670Z,5.80
2022-09-21T01:08:09.481Z,6.33
2022-09-21T01:11:11.035Z,5.70
2022-09-21T01:14:00.270Z,6.03
2022-09-21T01:16:42.483Z,5.83
2022-09-21T01:19:21.811Z,5.73
2022-09-21T01:22:07.447Z,5.50
2022-09-21T01:25:18.695Z,5.77
2022-09-21T01:28:12.057Z,6.20
2022-09-21T01:30:40.863Z,5.27
2022-09-21T01:33:14.717Z,6.20
2022-09-21T01:35:56.212Z,5.70
2022-09-21T01:38:31.964Z,6.63
2022-09-21T01:41:04.019Z,6.33
2022-09-21T01:43:41.416Z,6.70
2022-09-21T01:46:13.377Z,6.70
2022-09-21T01:48:44.886Z,6.10
2022-09-21T01:51:15.249Z,5.87
2022-09-21T01:53:45.211Z,6.27
2022-09-21T01:56:23.903Z,6.67
2022-09-21T01:59:24.948Z,6.13
2022-09-21T02:02:03.637Z,6.30
2022-09-21T02:04:31.077Z,6.30
2022-09-21T02:06:58.661Z,6.33
2022-09-21T02:09:26.040Z,6.23
2022-09-21T02:11:53.201Z,6.17
2022-09-21T02:14:24.769Z,6.37
2022-09-21T02:16:51.975Z,6.47
2022-09-21T02:19:26.763Z,6.63
2022-09-21T02:21:54.084Z,6.17
2022-09-21T02:24:47.349Z,7.00
2022-09-21T02:27:20.164Z,7.33
2022-09-21T02:30:02.659Z,6.20
2022-09-21T02:32:37.172Z,7.77
2022-09-21T02:35:20.615Z,7.83
2022-09-21T02:37:53.226Z,7.03
2022-09-21T02:40:33.744Z,6.93
2022-09-21T02:43:17.875Z,7.50
2022-09-21T02:45:52.434Z,7.07
2022-09-21T02:48:35.063Z,6.60
2022-09-21T02:51:13.968Z,7.27
2022-09-21T02:53:42.222Z,7.10
2022-09-21T02:56:11.032Z,6.90
2022-09-21T02:58:43.016Z,7.17
2022-09-21T03:01:15.192Z,7.17
2022-09-21T03:03:42.560Z,7.33
2022-09-21T03:06:09.891Z,6.80
2022-09-21T03:08:37.114Z,6.70
2022-09-21T03:11:04.454Z,6.97
2022-09-21T03:13:32.152Z,7.03
2022-09-21T03:16:02.815Z,7.63
2022-09-21T03:18:32.050Z,6.73
2022-09-21T03:20:59.477Z,7.17
2022-09-21T03:23:27.004Z,7.37
2022-09-21T03:25:54.325Z,7.13
2022-09-21T03:28:22.385Z,7.60
2022-09-21T03:30:51.496Z,7.53
2022-09-21T03:33:20.032Z,6.70
2022-09-21T03:35:51.246Z,6.60
2022-09-21T03:38:19.597Z,7.27
2022-09-21T03:40:48.261Z,7.30
2022-09-21T03:43:15.715Z,7.30
2022-09-21T03:45:43.774Z,6.63
2022-09-21T03:48:12.149Z,7.53
2022-09-21T03:50:39.517Z,7.13
2022-09-21T03:53:07.602Z,6.40
2022-09-21T03:55:34.939Z,8.27
2022-09-21T03:58:02.421Z,6.87
2022-09-21T04:00:30.004Z,7.50
2022-09-21T04:02:57.729Z,7.63
2022-09-21T04:05:24.980Z,7.03
2022-09-21T04:07:53.863Z,7.33
2022-09-21T04:10:23.397Z,7.33
2022-09-21T04:12:50.728Z,6.47
2022-09-21T04:15:19.233Z,7.03
2022-09-21T04:17:50.112Z,6.93
2022-09-21T04:20:17.316Z,6.57
2022-09-21T04:22:44.549Z,7.17
2022-09-21T04:25:12.000Z,6.43
2022-09-21T04:27:39.958Z,6.60
2022-09-21T04:30:08.077Z,6.77
2022-09-21T04:32:35.343Z,6.90
2022-09-21T04:35:03.015Z,7.83
2022-09-21T04:37:30.160Z,6.40
2022-09-21T04:39:57.328Z,6.53
2022-09-21T04:42:24.849Z,7.00
2022-09-21T04:44:52.174Z,6.57
2022-09-21T04:47:19.328Z,7.23
2022-09-21T04:49:46.565Z,6.17
2022-09-21T04:52:18.327Z,6.30
2022-09-21T04:54:47.235Z,6.30
2022-09-21T04:57:15.395Z,6.90
2022-09-21T04:59:42.650Z,7.37
2022-09-21T05:02:09.805Z,6.67
2022-09-21T05:04:36.924Z,7.50
2022-09-21T05:07:04.183Z,6.80
2022-09-21T05:09:31.291Z,7.10
2022-09-21T05:11:58.440Z,7.90
2022-09-21T05:14:25.595Z,6.97
2022-09-21T05:16:52.713Z,6.50
2022-09-21T05:19:19.876Z,6.13
2022-09-21T05:21:47.005Z,5.43
2022-09-21T05:24:14.170Z,6.57
2022-09-21T05:26:41.328Z,6.47
2022-09-21T05:29:09.085Z,6.90
2022-09-21T05:31:50.415Z,7.23
2022-09-21T05:34:36.882Z,8.20
2022-09-21T05:37:20.337Z,6.23
2022-09-21T05:39:47.704Z,6.80
2022-09-21T05:42:15.110Z,8.13
2022-09-21T05:44:42.548Z,6.97
2022-09-21T05:47:12.866Z,6.77
2022-09-21T05:49:57.853Z,7.10
2022-09-21T05:52:39.820Z,6.93
2022-09-21T05:55:30.957Z,7.07
2022-09-21T05:58:22.120Z,6.43
2022-09-21T06:01:18.680Z,6.90
2022-09-21T06:03:46.343Z,6.63
2022-09-21T06:06:13.515Z,6.83
2022-09-21T06:08:40.797Z,6.83
2022-09-21T06:11:08.001Z,6.80
2022-09-21T06:13:35.457Z,7.40
2022-09-21T06:16:03.567Z,7.70
2022-09-21T06:18:30.792Z,7.47
2022-09-21T06:20:57.965Z,7.13
2022-09-21T06:23:25.195Z,7.17
2022-09-21T06:25:58.060Z,7.30
2022-09-21T06:28:26.986Z,7.03
2022-09-21T06:30:56.027Z,7.23
2022-09-21T06:33:23.963Z,6.60
2022-09-21T06:35:58.929Z,6.80
2022-09-21T06:38:27.890Z,6.80
2022-09-21T06:40:56.039Z,6.27
2022-09-21T06:43:23.171Z,7.10
2022-09-21T06:45:57.276Z,6.83
2022-09-21T06:48:26.672Z,6.57
2022-09-21T06:50:58.785Z,9.07
2022-09-21T06:53:27.382Z,10.73
2022-09-21T06:55:59.854Z,12.30
2022-09-21T06:58:27.130Z,12.73
2022-09-21T07:00:54.382Z,12.30
2022-09-21T07:03:21.636Z,12.17
2022-09-21T07:05:48.792Z,14.07
2022-09-21T07:11:03.465Z,9.83
2022-09-21T07:13:30.671Z,9.37
2022-09-21T07:15:57.996Z,9.40
2022-09-21T07:18:25.162Z,16.60
2022-09-21T07:20:52.404Z,25.73
2022-09-21T07:23:20.418Z,27.83
2022-09-21T07:25:48.878Z,26.13
2022-09-21T07:28:16.659Z,25.07
2022-09-21T07:30:43.931Z,25.93
2022-09-21T07:33:11.441Z,24.50
2022-09-21T07:35:38.666Z,21.17
2022-09-21T07:38:07.505Z,16.60
2022-09-21T07:40:35.642Z,14.57
2022-09-21T07:43:03.418Z,11.80
2022-09-21T07:45:31.481Z,13.47
2022-09-21T07:48:05.928Z,13.67
2022-09-21T07:50:33.484Z,13.20
2022-09-21T07:53:01.905Z,12.90
2022-09-21T07:55:29.724Z,12.63
2022-09-21T07:57:57.100Z,13.77
2022-09-21T08:00:27.597Z,13.67
2022-09-21T08:02:54.758Z,12.67
2022-09-21T08:05:22.020Z,11.77
2022-09-21T08:07:49.158Z,11.23
2022-09-21T08:10:16.418Z,11.00
2022-09-21T08:12:43.686Z,10.70
2022-09-21T08:15:25.024Z,10.90
2022-09-21T08:17:58.146Z,10.17
2022-09-21T08:20:25.345Z,9.73
2022-09-21T08:22:55.209Z,10.10
2022-09-21T08:25:22.568Z,10.20
2022-09-21T08:27:49.806Z,11.13
2022-09-21T08:30:16.996Z,9.90
2022-09-21T08:32:51.472Z,9.93
2022-09-21T08:35:19.484Z,9.10
2022-09-21T08:37:46.751Z,10.40
2022-09-21T08:40:14.019Z,10.53
2022-09-21T08:43:09.352Z,9.80
2022-09-21T08:45:41.771Z,9.97
2022-09-21T08:48:25.228Z,10.03
2022-09-21T08:50:59.561Z,9.37
2022-09-21T08:53:34.584Z,9.60
2022-09-21T08:56:02.726Z,9.47
2022-09-21T08:58:31.709Z,8.17
2022-09-21T09:01:16.825Z,8.97
2022-09-21T09:04:15.506Z,9.33
2022-09-21T09:06:45.605Z,8.53
2022-09-21T09:09:39.170Z,8.50
2022-09-21T09:12:34.642Z,7.90
2022-09-21T09:15:15.766Z,8.37
2022-09-21T09:17:45.861Z,7.63
2022-09-21T09:20:23.270Z,8.00
2022-09-21T09:22:57.402Z,7.00
2022-09-21T09:25:25.031Z,6.77
2022-09-21T09:27:57.730Z,6.33
2022-09-21T09:30:27.390Z,5.40
2022-09-21T09:33:09.835Z,6.43
2022-09-21T09:35:49.732Z,5.87
2022-09-21T09:38:35.211Z,6.17
2022-09-21T09:41:02.401Z,6.60
2022-09-21T09:44:02.655Z,5.93
2022-09-21T09:46:32.912Z,5.43
2022-09-21T09:49:30.264Z,6.37
2022-09-21T09:51:57.677Z,6.47
2022-09-21T09:54:27.824Z,5.20
2022-09-21T09:56:55.120Z,5.13
2022-09-21T09:59:54.009Z,5.23
2022-09-21T10:02:21.563Z,5.30
2022-09-21T10:04:54.900Z,6.87
2022-09-21T10:07:38.152Z,5.57
2022-09-21T10:10:33.393Z,5.87
2022-09-21T10:13:06.208Z,6.43
2022-09-21T10:15:33.627Z,5.53
2022-09-21T10:18:18.404Z,5.53
2022-09-21T10:20:55.392Z,5.50
2022-09-21T10:23:23.514Z,5.77
2022-09-21T10:26:04.306Z,5.10
2022-09-21T10:28:32.049Z,5.17
2022-09-21T10:31:12.086Z,5.23
2022-09-21T10:33:51.675Z,5.13
2022-09-21T10:36:32.388Z,4.77
2022-09-21T10:39:19.453Z,4.10
2022-09-21T10:42:14.371Z,2.70
2022-09-21T10:44:53.279Z,2.90
2022-09-21T10:47:24.858Z,2.97
2022-09-21T10:49:58.335Z,2.10
2022-09-21T10:52:35.830Z,3.37
2022-09-21T10:55:03.281Z,2.70
2022-09-21T10:57:31.164Z,3.27
2022-09-21T10:59:58.414Z,3.40
2022-09-21T11:02:43.542Z,3.80
2022-09-21T11:05:16.441Z,3.87
2022-09-21T11:07:58.631Z,3.93
2022-09-21T11:10:44.744Z,3.03
2022-09-21T11:13:27.076Z,3.03
2022-09-21T11:16:17.130Z,1.53
2022-09-21T11:19:00.005Z,1.60
2022-09-21T11:21:47.454Z,2.23
2022-09-21T11:24:44.745Z,2.10
2022-09-21T11:27:21.258Z,1.80
2022-09-21T11:30:01.024Z,1.80
2022-09-21T11:32:49.407Z,1.80
2022-09-21T11:35:34.563Z,1.80
2022-09-21T11:38:23.784Z,1.93
2022-09-21T11:40:53.962Z,2.33
2022-09-21T11:43:45.878Z,1.70
2022-09-21T11:46:48.136Z,1.43
2022-09-21T11:49:30.421Z,2.10
2022-09-21T11:52:20.987Z,1.50
2022-09-21T11:54:51.017Z,1.50
2022-09-21T11:57:26.818Z,1.50
2022-09-21T12:00:09.448Z,1.17
2022-09-21T12:02:58.455Z,1.30
2022-09-21T12:05:48.606Z,1.20
2022-09-21T12:08:27.580Z,1.50
2022-09-21T12:11:22.040Z,1.40
2022-09-21T12:14:28.052Z,1.37
2022-09-21T12:17:09.560Z,1.30
2022-09-21T12:19:36.741Z,1.53
2022-09-21T12:22:12.668Z,1.73
2022-09-21T12:24:53.109Z,1.53
2022-09-21T12:27:39.479Z,1.40
2022-09-21T12:30:25.828Z,1.40
2022-09-21T12:33:18.714Z,1.17
2022-09-21T12:35:54.943Z,1.17
2022-09-21T12:38:35.979Z,1.30
2022-09-21T12:41:03.088Z,1.30
2022-09-21T12:43:43.450Z,1.50
2022-09-21T12:46:28.865Z,1.50
2022-09-21T12:48:59.186Z,1.50
2022-09-21T12:51:37.717Z,1.30
2022-09-21T12:54:25.846Z,1.53
2022-09-21T12:56:58.873Z,2.70
2022-09-21T12:59:42.768Z,2.97
2022-09-21T13:02:28.500Z,8.20
2022-09-21T13:04:58.783Z,2.00
2022-09-21T13:07:43.643Z,1.67
2022-09-21T13:10:19.224Z,1.30
2022-09-21T13:12:51.864Z,1.30
2022-09-21T13:15:28.231Z,1.20
2022-09-21T13:18:04.777Z,1.50
2022-09-21T13:20:39.870Z,1.30
2022-09-21T13:23:17.093Z,1.50
2022-09-21T13:25:58.125Z,1.23
2022-09-21T13:28:54.810Z,1.50
2022-09-21T13:31:53.116Z,1.50
2022-09-21T13:34:35.531Z,1.60
2022-09-21T13:37:11.680Z,1.77
2022-09-21T13:39:50.932Z,1.60
2022-09-21T13:42:38.210Z,1.53
2022-09-21T13:45:17.186Z,2.13
2022-09-21T13:47:46.615Z,1.83
2022-09-21T13:50:29.847Z,1.73
2022-09-21T13:53:03.216Z,1.40
2022-09-21T13:55:37.342Z,1.53
2022-09-21T13:58:33.762Z,2.30
2022-09-21T14:01:29.195Z,1.63
2022-09-21T14:04:27.926Z,1.50
2022-09-21T14:06:57.098Z,1.63
2022-09-21T14:09:36.471Z,1.30
2022-09-21T14:12:09.034Z,1.43
2022-09-21T14:14:39.909Z,1.30
2022-09-21T14:17:37.066Z,1.47
2022-09-21T14:20:29.517Z,1.30
2022-09-21T14:23:22.496Z,1.30
2022-09-21T14:25:53.569Z,1.30
2022-09-21T14:28:43.298Z,1.30
2022-09-21T14:31:26.572Z,1.30
2022-09-21T14:33:56.305Z,2.00
2022-09-21T14:36:46.712Z,1.10
2022-09-21T14:39:21.765Z,1.83
2022-09-21T14:41:52.197Z,1.50
2022-09-21T14:44:27.680Z,1.30
2022-09-21T14:47:13.440Z,1.50
2022-09-21T14:49:46.170Z,1.37
2022-09-21T14:52:40.445Z,1.43
2022-09-21T14:55:13.380Z,1.60
2022-09-21T14:58:11.507Z,1.63
2022-09-21T15:00:40.136Z,1.57
2022-09-21T15:03:22.305Z,1.50
2022-09-21T15:06:19.112Z,1.40
2022-09-21T15:09:10.604Z,1.43
2022-09-21T15:11:44.718Z,1.40
2022-09-21T15:14:40.270Z,1.50
2022-09-21T15:17:23.646Z,1.27
2022-09-21T15:19:51.038Z,1.33
2022-09-21T15:22:20.755Z,1.53
2022-09-21T15:24:56.374Z,1.80
2022-09-21T15:27:27.495Z,1.70
2022-09-21T15:29:56.410Z,2.00
2022-09-21T15:32:40.262Z,1.67
2022-09-21T15:35:21.619Z,1.70
2022-09-21T15:37:50.100Z,1.77
2022-09-21T15:40:20.382Z,1.40
2022-09-21T15:43:20.284Z,1.87
2022-09-21T15:45:50.663Z,2.07
2022-09-21T15:48:18.567Z,2.47
2022-09-21T15:50:50.259Z,1.87
2022-09-21T15:53:23.465Z,1.60
2022-09-21T15:55:50.920Z,1.70
2022-09-21T15:58:31.327Z,1.43
2022-09-21T16:00:58.793Z,1.80
2022-09-21T16:03:26.176Z,1.40
2022-09-21T16:05:56.237Z,1.50
2022-09-21T16:08:31.091Z,1.60
2022-09-21T16:11:17.762Z,1.63
2022-09-21T16:13:47.093Z,1.63
2022-09-21T16:16:15.307Z,1.67
2022-09-21T16:18:53.311Z,1.53
2022-09-21T16:21:29.736Z,1.60
2022-09-21T16:23:58.970Z,1.50
2022-09-21T16:26:34.670Z,1.73
2022-09-21T16:29:08.136Z,2.90
2022-09-21T16:31:35.949Z,2.90
2022-09-21T16:34:18.411Z,2.53
2022-09-21T16:36:47.554Z,2.17
2022-09-21T16:39:16.968Z,2.23
2022-09-21T16:41:48.052Z,3.63
2022-09-21T16:44:18.331Z,2.20
2022-09-21T16:46:45.718Z,1.70
2022-09-21T16:49:16.815Z,2.00
2022-09-21T16:51:44.960Z,1.80
2022-09-21T16:54:12.708Z,2.40
2022-09-21T16:56:40.311Z,2.00
2022-09-21T16:59:18.220Z,2.23
2022-09-21T17:01:45.568Z,1.90
2022-09-21T17:04:12.734Z,1.90
2022-09-21T17:06:40.473Z,2.90
2022-09-21T17:09:20.660Z,3.47
2022-09-21T17:11:49.075Z,2.63
2022-09-21T17:14:16.323Z,3.17
2022-09-21T17:16:50.291Z,3.03
2022-09-21T17:19:18.470Z,3.10
2022-09-21T17:21:47.008Z,2.83
2022-09-21T17:24:32.819Z,2.73
2022-09-21T17:27:05.672Z,3.10
2022-09-21T17:29:32.981Z,3.13
2022-09-21T17:32:00.131Z,3.97
2022-09-21T17:34:29.091Z,5.23
2022-09-21T17:36:56.347Z,4.57
2022-09-21T17:39:24.535Z,5.20
2022-09-21T17:42:01.212Z,4.70
2022-09-21T17:44:35.692Z,5.13
2022-09-21T17:47:25.035Z,3.97
2022-09-21T17:49:52.615Z,3.83
2022-09-21T17:52:22.368Z,6.90
2022-09-21T17:54:49.833Z,5.13
2022-09-21T17:58:08.679Z,4.03
2022-09-21T18:00:48.202Z,4.53
2022-09-21T18:03:28.140Z,6.63
2022-09-21T18:05:56.999Z,5.80
2022-09-21T18:08:25.188Z,7.43
2022-09-21T18:11:38.412Z,5.70
2022-09-21T18:14:21.245Z,19.57
2022-09-21T18:17:17.191Z,8.10
2022-09-21T18:20:10.134Z,5.50
2022-09-21T18:22:58.746Z,4.67
2022-09-21T18:25:38.205Z,5.60
2022-09-21T18:28:42.412Z,5.70
2022-09-21T18:31:31.769Z,6.00
2022-09-21T18:34:17.436Z,5.80
2022-09-21T18:37:02.504Z,6.23
2022-09-21T18:39:44.906Z,5.50
2022-09-21T18:42:54.200Z,6.10
2022-09-21T18:45:27.512Z,6.97
2022-09-21T18:47:54.765Z,8.60
2022-09-21T18:50:37.522Z,6.80
2022-09-21T18:53:29.311Z,8.10
2022-09-21T18:55:56.895Z,6.77
2022-09-21T18:58:24.398Z,7.70
2022-09-21T19:00:52.061Z,10.33
2022-09-21T19:03:19.906Z,7.83
2022-09-21T19:06:22.243Z,8.27
2022-09-21T19:09:08.740Z,8.07
2022-09-21T19:11:41.878Z,6.83
2022-09-21T19:14:11.811Z,5.90
2022-09-21T19:16:55.068Z,6.93
2022-09-21T19:19:43.155Z,6.13
2022-09-21T19:22:34.678Z,5.43
2022-09-21T19:25:12.754Z,5.33
2022-09-21T19:27:46.135Z,6.10
2022-09-21T19:30:15.683Z,6.10
2022-09-21T19:32:50.685Z,8.80
2022-09-21T19:35:22.598Z,8.13
2022-09-21T19:37:51.835Z,9.10
2022-09-21T19:40:21.747Z,8.47
2022-09-21T19:42:59.391Z,7.67
2022-09-21T19:45:57.772Z,8.00
2022-09-21T19:48:27.519Z,7.97
2022-09-21T19:50:56.392Z,7.53
2022-09-21T19:53:24.256Z,7.33
2022-09-21T19:55:51.644Z,7.10
2022-09-21T19:58:19.057Z,7.17
2022-09-21T20:00:50.899Z,6.60
2022-09-21T20:03:36.799Z,6.60
2022-09-21T20:06:11.040Z,9.13
2022-09-21T20:09:39.674Z,8.47
2022-09-21T20:12:23.928Z,9.17
2022-09-21T20:15:15.719Z,8.20
2022-09-21T20:17:52.174Z,7.90
2022-09-21T20:20:24.560Z,7.63
2022-09-21T20:22:53.228Z,7.83
2022-09-21T20:25:45.417Z,8.23
2022-09-21T20:28:12.913Z,7.47
2022-09-21T20:30:40.416Z,7.20
2022-09-21T20:33:16.746Z,6.70
2022-09-21T20:35:44.844Z,7.80
2022-09-21T20:38:15.133Z,7.73
2022-09-21T20:40:42.883Z,7.27
2022-09-21T20:43:10.087Z,6.77
2022-09-21T20:45:37.779Z,5.30
2022-09-21T20:48:05.073Z,5.27
2022-09-21T20:50:32.367Z,5.30
2022-09-21T20:52:59.696Z,4.90
2022-09-21T20:55:26.865Z,5.93
2022-09-21T20:57:54.028Z,5.57
2022-09-21T21:00:23.818Z,5.10
2022-09-21T21:02:51.201Z,5.17
2022-09-21T21:05:18.459Z,5.30
2022-09-21T21:07:45.747Z,4.93
2022-09-21T21:10:13.031Z,4.60
2022-09-21T21:12:41.879Z,4.73
2022-09-21T21:15:10.541Z,4.70
2022-09-21T21:17:38.160Z,4.97
2022-09-21T21:20:06.371Z,5.93
2022-09-21T21:22:33.641Z,5.20
2022-09-21T21:25:00.868Z,5.77
2022-09-21T21:27:28.058Z,4.90
2022-09-21T21:29:55.424Z,4.97
2022-09-21T21:32:24.364Z,4.80
2022-09-21T21:34:52.740Z,5.20
2022-09-21T21:37:21.363Z,5.27
2022-09-21T21:39:48.578Z,4.30
2022-09-21T21:42:16.578Z,4.40
2022-09-21T21:44:44.081Z,5.23
2022-09-21T21:47:37.728Z,4.93
2022-09-21T21:49:58.416Z,5.13
2022-09-21T21:52:25.554Z,5.17
2022-09-21T21:54:52.706Z,5.07
2022-09-21T21:57:20.379Z,4.77
2022-09-21T21:59:47.553Z,5.50
2022-09-21T22:02:14.723Z,5.57
2022-09-21T22:04:41.932Z,5.70
2022-09-21T22:07:09.233Z,5.97
2022-09-21T22:09:36.511Z,5.80
2022-09-21T22:12:03.885Z,6.10
2022-09-21T22:14:31.340Z,6.53
2022-09-21T22:16:58.453Z,7.13
2022-09-21T22:19:25.855Z,7.40
2022-09-21T22:21:54.542Z,7.60
2022-09-21T22:24:22.620Z,7.73
2022-09-21T22:26:49.798Z,7.70
2022-09-21T22:29:17.439Z,6.83
2022-09-21T22:31:47.666Z,7.87
2022-09-21T22:34:15.443Z,6.73
2022-09-21T22:36:42.878Z,7.17
2022-09-21T22:39:11.072Z,6.77
2022-09-21T22:41:40.458Z,7.77
2022-09-21T22:44:08.558Z,8.53
2022-09-21T22:46:36.491Z,8.00
2022-09-21T22:49:04.316Z,7.67
2022-09-21T22:51:32.139Z,7.70
2022-09-21T22:53:59.418Z,7.57
2022-09-21T22:56:28.934Z,7.57
2022-09-21T22:58:58.555Z,8.70
2022-09-21T23:01:28.949Z,6.93
2022-09-21T23:03:58.508Z,6.90
2022-09-21T23:06:31.000Z,7.17
2022-09-21T23:08:59.438Z,6.87
2022-09-21T23:11:29.906Z,7.33
2022-09-21T23:13:58.588Z,8.73
2022-09-21T23:16:27.742Z,7.90
2022-09-21T23:18:56.480Z,8.17
2022-09-21T23:21:27.097Z,8.10
2022-09-21T23:23:59.393Z,7.30
2022-09-21T23:26:28.350Z,7.57
2022-09-21T23:28:57.945Z,7.43
2022-09-21T23:31:26.236Z,7.47
2022-09-21T23:33:55.269Z,7.47
2022-09-21T23:36:25.508Z,6.57
2022-09-21T23:38:52.714Z,6.80
2022-09-21T23:41:34.480Z,7.17
2022-09-21T23:44:04.515Z,7.17
2022-09-21T23:46:35.645Z,6.80
2022-09-21T23:49:03.987Z,6.60
2022-09-21T23:51:31.523Z,6.50
2022-09-21T23:53:59.353Z,6.37
2022-09-21T23:56:29.375Z,5.97
2022-09-21T23:58:56.749Z,6.30
